sensor_id;sensor_type;location;lat;lon;timestamp;temperature;humidity
15543;DHT22;7873;52.230;12.856;2022-10-04T00:00:26;24.40;49.70
15543;DHT22;7873;52.230;12.856;2022-10-04T00:02:58;24.40;49.70
15543;DHT22;7873;52.230;12.856;2022-10-04T00:05:32;24.40;49.70
15543;DHT22;7873;52.230;12.856;2022-10-04T00:08:01;24.40;49.70
15543;DHT22;7873;52.230;12.856;2022-10-04T00:10:36;24.40;49.70
15543;DHT22;7873;52.230;12.856;2022-10-04T00:13:04;24.40;49.70
15543;DHT22;7873;52.230;12.856;2022-10-04T00:15:40;24.40;49.70
15543;DHT22;7873;52.230;12.856;2022-10-04T00:18:17;24.40;49.90
15543;DHT22;7873;52.230;12.856;2022-10-04T00:20:55;24.40;49.90
15543;DHT22;7873;52.230;12.856;2022-10-04T00:23:26;24.40;49.80
15543;DHT22;7873;52.230;12.856;2022-10-04T00:25:55;24.40;49.80
15543;DHT22;7873;52.230;12.856;2022-10-04T00:28:39;24.40;49.80
15543;DHT22;7873;52.230;12.856;2022-10-04T00:31:11;24.30;49.80
15543;DHT22;7873;52.230;12.856;2022-10-04T00:33:40;24.30;49.90
15543;DHT22;7873;52.230;12.856;2022-10-04T00:39:36;24.30;49.90
15543;DHT22;7873;52.230;12.856;2022-10-04T00:42:10;24.30;49.90
15543;DHT22;7873;52.230;12.856;2022-10-04T00:44:44;24.30;50.00
15543;DHT22;7873;52.230;12.856;2022-10-04T00:47:20;24.30;50.00
15543;DHT22;7873;52.230;12.856;2022-10-04T00:49:58;24.30;50.00
15543;DHT22;7873;52.230;12.856;2022-10-04T00:52:30;24.30;50.00
15543;DHT22;7873;52.230;12.856;2022-10-04T00:55:01;24.30;50.10
15543;DHT22;7873;52.230;12.856;2022-10-04T00:57:32;24.30;50.00
15543;DHT22;7873;52.230;12.856;2022-10-04T01:00:03;24.30;50.70
15543;DHT22;7873;52.230;12.856;2022-10-04T01:02:36;24.30;50.00
15543;DHT22;7873;52.230;12.856;2022-10-04T01:05:13;24.30;49.90
15543;DHT22;7873;52.230;12.856;2022-10-04T01:07:43;24.30;49.90
15543;DHT22;7873;52.230;12.856;2022-10-04T01:10:13;24.30;49.90
15543;DHT22;7873;52.230;12.856;2022-10-04T01:12:46;24.30;50.60
15543;DHT22;7873;52.230;12.856;2022-10-04T01:15:17;24.30;49.90
15543;DHT22;7873;52.230;12.856;2022-10-04T01:18:10;24.30;49.80
15543;DHT22;7873;52.230;12.856;2022-10-04T01:20:39;24.30;49.90
15543;DHT22;7873;52.230;12.856;2022-10-04T01:29:05;24.30;49.90
15543;DHT22;7873;52.230;12.856;2022-10-04T01:31:34;24.30;50.00
15543;DHT22;7873;52.230;12.856;2022-10-04T01:34:02;24.30;50.00
15543;DHT22;7873;52.230;12.856;2022-10-04T01:36:30;24.30;50.00
15543;DHT22;7873;52.230;12.856;2022-10-04T01:38:58;24.30;50.00
15543;DHT22;7873;52.230;12.856;2022-10-04T01:41:26;24.30;50.00
15543;DHT22;7873;52.230;12.856;2022-10-04T01:44:04;24.30;50.00
15543;DHT22;7873;52.230;12.856;2022-10-04T01:46:35;24.30;50.00
15543;DHT22;7873;52.230;12.856;2022-10-04T01:49:03;24.30;50.00
15543;DHT22;7873;52.230;12.856;2022-10-04T01:51:35;24.30;50.00
15543;DHT22;7873;52.230;12.856;2022-10-04T01:54:08;24.30;50.00
15543;DHT22;7873;52.230;12.856;2022-10-04T01:56:37;24.30;49.90
15543;DHT22;7873;52.230;12.856;2022-10-04T01:59:13;24.30;49.90
15543;DHT22;7873;52.230;12.856;2022-10-04T02:01:42;24.30;50.00
15543;DHT22;7873;52.230;12.856;2022-10-04T02:04:14;24.30;50.00
15543;DHT22;7873;52.230;12.856;2022-10-04T02:06:43;24.30;49.90
15543;DHT22;7873;52.230;12.856;2022-10-04T02:09:11;24.30;49.90
15543;DHT22;7873;52.230;12.856;2022-10-04T02:11:42;24.30;49.80
15543;DHT22;7873;52.230;12.856;2022-10-04T02:14:12;24.30;49.70
15543;DHT22;7873;52.230;12.856;2022-10-04T02:16:42;24.30;49.80
15543;DHT22;7873;52.230;12.856;2022-10-04T02:19:11;24.30;49.80
15543;DHT22;7873;52.230;12.856;2022-10-04T02:21:39;24.30;50.50
15543;DHT22;7873;52.230;12.856;2022-10-04T02:24:07;24.30;49.90
15543;DHT22;7873;52.230;12.856;2022-10-04T02:26:35;24.30;49.90
15543;DHT22;7873;52.230;12.856;2022-10-04T02:29:01;24.30;49.90
15543;DHT22;7873;52.230;12.856;2022-10-04T02:31:29;24.30;49.90
15543;DHT22;7873;52.230;12.856;2022-10-04T02:34:14;24.30;49.90
15543;DHT22;7873;52.230;12.856;2022-10-04T02:36:44;24.30;49.90
15543;DHT22;7873;52.230;12.856;2022-10-04T02:39:17;24.30;49.90
15543;DHT22;7873;52.230;12.856;2022-10-04T02:41:49;24.30;49.90
15543;DHT22;7873;52.230;12.856;2022-10-04T02:44:18;24.30;49.80
15543;DHT22;7873;52.230;12.856;2022-10-04T02:46:52;24.30;49.90
15543;DHT22;7873;52.230;12.856;2022-10-04T02:49:30;24.30;49.80
15543;DHT22;7873;52.230;12.856;2022-10-04T02:52:02;24.30;49.80
15543;DHT22;7873;52.230;12.856;2022-10-04T02:54:34;24.30;49.90
15543;DHT22;7873;52.230;12.856;2022-10-04T02:57:08;24.30;49.90
15543;DHT22;7873;52.230;12.856;2022-10-04T02:59:41;24.30;50.00
15543;DHT22;7873;52.230;12.856;2022-10-04T03:02:19;24.30;50.00
15543;DHT22;7873;52.230;12.856;2022-10-04T03:04:47;24.20;50.00
15543;DHT22;7873;52.230;12.856;2022-10-04T03:07:16;24.20;50.20
15543;DHT22;7873;52.230;12.856;2022-10-04T03:09:44;24.20;50.10
15543;DHT22;7873;52.230;12.856;2022-10-04T03:12:11;24.20;50.10
15543;DHT22;7873;52.230;12.856;2022-10-04T03:14:38;24.20;50.10
15543;DHT22;7873;52.230;12.856;2022-10-04T03:17:05;24.30;50.20
15543;DHT22;7873;52.230;12.856;2022-10-04T03:19:34;24.30;50.00
15543;DHT22;7873;52.230;12.856;2022-10-04T03:22:03;24.30;49.70
15543;DHT22;7873;52.230;12.856;2022-10-04T03:24:34;24.40;49.70
15543;DHT22;7873;52.230;12.856;2022-10-04T03:27:05;24.30;49.90
15543;DHT22;7873;52.230;12.856;2022-10-04T03:29:34;24.40;50.00
15543;DHT22;7873;52.230;12.856;2022-10-04T03:32:09;24.40;49.80
15543;DHT22;7873;52.230;12.856;2022-10-04T03:34:40;24.50;50.10
15543;DHT22;7873;52.230;12.856;2022-10-04T03:37:11;24.60;50.20
15543;DHT22;7873;52.230;12.856;2022-10-04T03:39:41;24.50;50.20
15543;DHT22;7873;52.230;12.856;2022-10-04T03:42:12;24.50;50.40
15543;DHT22;7873;52.230;12.856;2022-10-04T03:44:41;24.50;50.40
15543;DHT22;7873;52.230;12.856;2022-10-04T03:47:11;24.60;50.10
15543;DHT22;7873;52.230;12.856;2022-10-04T03:49:41;24.60;50.20
15543;DHT22;7873;52.230;12.856;2022-10-04T03:52:18;24.60;50.30
15543;DHT22;7873;52.230;12.856;2022-10-04T03:54:47;24.50;50.50
15543;DHT22;7873;52.230;12.856;2022-10-04T03:57:16;24.60;50.40
15543;DHT22;7873;52.230;12.856;2022-10-04T03:59:43;24.50;50.30
15543;DHT22;7873;52.230;12.856;2022-10-04T04:02:11;24.60;50.10
15543;DHT22;7873;52.230;12.856;2022-10-04T04:04:46;24.50;50.20
15543;DHT22;7873;52.230;12.856;2022-10-04T04:07:23;24.60;49.70
15543;DHT22;7873;52.230;12.856;2022-10-04T04:09:54;24.70;49.50
15543;DHT22;7873;52.230;12.856;2022-10-04T04:12:29;24.80;49.30
15543;DHT22;7873;52.230;12.856;2022-10-04T04:15:03;24.90;49.10
15543;DHT22;7873;52.230;12.856;2022-10-04T04:17:36;24.90;49.00
15543;DHT22;7873;52.230;12.856;2022-10-04T04:20:12;24.90;49.30
15543;DHT22;7873;52.230;12.856;2022-10-04T04:22:43;24.80;49.50
15543;DHT22;7873;52.230;12.856;2022-10-04T04:25:20;24.90;49.20
15543;DHT22;7873;52.230;12.856;2022-10-04T04:27:49;24.90;48.90
15543;DHT22;7873;52.230;12.856;2022-10-04T04:30:21;25.00;48.70
15543;DHT22;7873;52.230;12.856;2022-10-04T04:32:48;24.80;48.90
15543;DHT22;7873;52.230;12.856;2022-10-04T04:35:24;24.70;49.20
15543;DHT22;7873;52.230;12.856;2022-10-04T04:38:03;24.60;49.70
15543;DHT22;7873;52.230;12.856;2022-10-04T04:40:31;24.40;50.00
15543;DHT22;7873;52.230;12.856;2022-10-04T04:42:59;24.30;50.00
15543;DHT22;7873;52.230;12.856;2022-10-04T04:45:28;24.30;50.20
15543;DHT22;7873;52.230;12.856;2022-10-04T04:47:57;24.20;50.30
15543;DHT22;7873;52.230;12.856;2022-10-04T04:50:29;24.20;50.40
15543;DHT22;7873;52.230;12.856;2022-10-04T04:52:58;24.20;50.50
15543;DHT22;7873;52.230;12.856;2022-10-04T04:55:31;24.20;50.60
15543;DHT22;7873;52.230;12.856;2022-10-04T04:57:59;24.20;50.30
15543;DHT22;7873;52.230;12.856;2022-10-04T05:00:27;24.20;50.40
15543;DHT22;7873;52.230;12.856;2022-10-04T05:02:57;24.30;50.60
15543;DHT22;7873;52.230;12.856;2022-10-04T05:05:26;24.40;50.40
15543;DHT22;7873;52.230;12.856;2022-10-04T05:10:49;24.30;50.30
15543;DHT22;7873;52.230;12.856;2022-10-04T05:13:31;24.30;50.30
15543;DHT22;7873;52.230;12.856;2022-10-04T05:16:06;24.30;50.40
15543;DHT22;7873;52.230;12.856;2022-10-04T05:18:38;24.20;50.90
15543;DHT22;7873;52.230;12.856;2022-10-04T05:21:06;24.30;51.00
15543;DHT22;7873;52.230;12.856;2022-10-04T05:23:38;24.40;50.50
15543;DHT22;7873;52.230;12.856;2022-10-04T05:26:08;24.30;50.60
15543;DHT22;7873;52.230;12.856;2022-10-04T05:28:36;24.30;51.00
15543;DHT22;7873;52.230;12.856;2022-10-04T05:33:55;24.30;50.70
15543;DHT22;7873;52.230;12.856;2022-10-04T05:36:39;24.30;50.80
15543;DHT22;7873;52.230;12.856;2022-10-04T05:39:17;24.30;51.00
15543;DHT22;7873;52.230;12.856;2022-10-04T05:41:52;24.40;50.60
15543;DHT22;7873;52.230;12.856;2022-10-04T05:44:23;24.40;50.60
15543;DHT22;7873;52.230;12.856;2022-10-04T05:46:53;24.40;51.20
15543;DHT22;7873;52.230;12.856;2022-10-04T05:49:21;24.30;50.40
15543;DHT22;7873;52.230;12.856;2022-10-04T05:51:52;24.40;50.60
15543;DHT22;7873;52.230;12.856;2022-10-04T05:54:23;24.40;50.60
15543;DHT22;7873;52.230;12.856;2022-10-04T05:57:02;24.40;50.60
15543;DHT22;7873;52.230;12.856;2022-10-04T05:59:53;24.40;50.50
15543;DHT22;7873;52.230;12.856;2022-10-04T06:02:35;24.40;50.30
15543;DHT22;7873;52.230;12.856;2022-10-04T06:05:12;24.30;50.60
15543;DHT22;7873;52.230;12.856;2022-10-04T06:07:44;24.30;50.50
15543;DHT22;7873;52.230;12.856;2022-10-04T06:10:31;24.40;50.20
15543;DHT22;7873;52.230;12.856;2022-10-04T06:13:12;24.40;50.20
15543;DHT22;7873;52.230;12.856;2022-10-04T06:16:00;24.30;49.60
15543;DHT22;7873;52.230;12.856;2022-10-04T06:18:41;24.30;49.90
15543;DHT22;7873;52.230;12.856;2022-10-04T06:21:33;24.40;49.80
15543;DHT22;7873;52.230;12.856;2022-10-04T06:24:08;24.30;49.80
15543;DHT22;7873;52.230;12.856;2022-10-04T06:26:43;24.30;49.70
15543;DHT22;7873;52.230;12.856;2022-10-04T06:29:14;24.30;50.20
15543;DHT22;7873;52.230;12.856;2022-10-04T06:31:50;24.40;49.90
15543;DHT22;7873;52.230;12.856;2022-10-04T06:34:39;24.30;49.90
15543;DHT22;7873;52.230;12.856;2022-10-04T06:37:24;24.30;49.80
15543;DHT22;7873;52.230;12.856;2022-10-04T06:40:17;24.30;49.50
15543;DHT22;7873;52.230;12.856;2022-10-04T06:43:03;24.20;49.90
15543;DHT22;7873;52.230;12.856;2022-10-04T06:45:45;24.10;49.90
15543;DHT22;7873;52.230;12.856;2022-10-04T06:48:27;24.10;50.10
15543;DHT22;7873;52.230;12.856;2022-10-04T06:51:07;24.10;50.20
15543;DHT22;7873;52.230;12.856;2022-10-04T06:53:42;24.10;50.20
15543;DHT22;7873;52.230;12.856;2022-10-04T06:59:31;24.10;50.40
15543;DHT22;7873;52.230;12.856;2022-10-04T07:02:11;24.10;49.80
15543;DHT22;7873;52.230;12.856;2022-10-04T07:04:41;24.10;49.70
15543;DHT22;7873;52.230;12.856;2022-10-04T07:07:14;24.10;49.80
15543;DHT22;7873;52.230;12.856;2022-10-04T07:10:02;24.10;50.40
15543;DHT22;7873;52.230;12.856;2022-10-04T07:12:41;24.20;49.50
15543;DHT22;7873;52.230;12.856;2022-10-04T07:15:16;24.10;49.70
15543;DHT22;7873;52.230;12.856;2022-10-04T07:17:48;24.10;49.50
15543;DHT22;7873;52.230;12.856;2022-10-04T07:20:19;24.10;49.50
15543;DHT22;7873;52.230;12.856;2022-10-04T07:22:50;24.20;49.30
15543;DHT22;7873;52.230;12.856;2022-10-04T07:25:21;24.20;49.30
15543;DHT22;7873;52.230;12.856;2022-10-04T07:27:54;24.30;49.20
15543;DHT22;7873;52.230;12.856;2022-10-04T07:30:40;24.30;49.10
15543;DHT22;7873;52.230;12.856;2022-10-04T07:33:13;24.20;49.20
15543;DHT22;7873;52.230;12.856;2022-10-04T07:35:44;24.20;49.20
15543;DHT22;7873;52.230;12.856;2022-10-04T07:38:15;24.20;49.20
15543;DHT22;7873;52.230;12.856;2022-10-04T07:41:02;24.30;49.10
15543;DHT22;7873;52.230;12.856;2022-10-04T07:43:34;24.20;48.90
15543;DHT22;7873;52.230;12.856;2022-10-04T07:46:13;24.20;48.90
15543;DHT22;7873;52.230;12.856;2022-10-04T07:48:45;24.30;48.90
15543;DHT22;7873;52.230;12.856;2022-10-04T07:51:18;24.20;49.00
15543;DHT22;7873;52.230;12.856;2022-10-04T07:53:49;24.20;49.10
15543;DHT22;7873;52.230;12.856;2022-10-04T07:56:21;24.20;48.90
15543;DHT22;7873;52.230;12.856;2022-10-04T07:58:59;24.20;48.90
15543;DHT22;7873;52.230;12.856;2022-10-04T08:01:38;24.20;48.90
15543;DHT22;7873;52.230;12.856;2022-10-04T08:04:13;24.20;49.00
15543;DHT22;7873;52.230;12.856;2022-10-04T08:06:56;24.10;49.00
15543;DHT22;7873;52.230;12.856;2022-10-04T08:09:30;24.20;48.90
15543;DHT22;7873;52.230;12.856;2022-10-04T08:12:05;24.20;48.80
15543;DHT22;7873;52.230;12.856;2022-10-04T08:14:45;24.20;48.60
15543;DHT22;7873;52.230;12.856;2022-10-04T08:17:22;24.20;48.80
15543;DHT22;7873;52.230;12.856;2022-10-04T08:20:01;24.20;48.80
15543;DHT22;7873;52.230;12.856;2022-10-04T08:22:39;24.10;48.80
15543;DHT22;7873;52.230;12.856;2022-10-04T08:25:17;24.20;48.90
15543;DHT22;7873;52.230;12.856;2022-10-04T08:27:54;24.20;48.90
15543;DHT22;7873;52.230;12.856;2022-10-04T08:30:52;24.20;48.80
15543;DHT22;7873;52.230;12.856;2022-10-04T08:33:30;24.10;48.80
15543;DHT22;7873;52.230;12.856;2022-10-04T08:36:10;24.20;48.80
15543;DHT22;7873;52.230;12.856;2022-10-04T08:38:49;24.20;48.80
15543;DHT22;7873;52.230;12.856;2022-10-04T08:44:38;24.10;48.90
15543;DHT22;7873;52.230;12.856;2022-10-04T08:47:30;24.10;49.00
15543;DHT22;7873;52.230;12.856;2022-10-04T08:50:25;24.10;48.70
15543;DHT22;7873;52.230;12.856;2022-10-04T08:56:17;24.10;48.70
15543;DHT22;7873;52.230;12.856;2022-10-04T08:59:09;24.20;48.80
15543;DHT22;7873;52.230;12.856;2022-10-04T09:05:34;23.80;49.70
15543;DHT22;7873;52.230;12.856;2022-10-04T09:11:35;23.60;49.40
15543;DHT22;7873;52.230;12.856;2022-10-04T09:14:20;23.50;50.10
15543;DHT22;7873;52.230;12.856;2022-10-04T09:17:14;23.60;49.90
15543;DHT22;7873;52.230;12.856;2022-10-04T09:19:49;23.70;49.70
15543;DHT22;7873;52.230;12.856;2022-10-04T09:22:27;23.90;49.20
15543;DHT22;7873;52.230;12.856;2022-10-04T09:25:12;23.90;49.10
15543;DHT22;7873;52.230;12.856;2022-10-04T09:28:09;23.70;49.80
15543;DHT22;7873;52.230;12.856;2022-10-04T09:30:51;23.70;49.90
15543;DHT22;7873;52.230;12.856;2022-10-04T09:33:31;23.70;50.00
15543;DHT22;7873;52.230;12.856;2022-10-04T09:36:26;23.80;50.00
15543;DHT22;7873;52.230;12.856;2022-10-04T09:39:11;23.90;50.00
15543;DHT22;7873;52.230;12.856;2022-10-04T09:45:18;24.10;50.10
15543;DHT22;7873;52.230;12.856;2022-10-04T09:48:00;24.00;50.10
15543;DHT22;7873;52.230;12.856;2022-10-04T09:50:51;24.00;50.20
15543;DHT22;7873;52.230;12.856;2022-10-04T09:53:37;24.00;50.40
15543;DHT22;7873;52.230;12.856;2022-10-04T09:56:19;24.00;50.90
15543;DHT22;7873;52.230;12.856;2022-10-04T09:59:09;24.20;50.70
15543;DHT22;7873;52.230;12.856;2022-10-04T10:01:49;24.10;50.50
15543;DHT22;7873;52.230;12.856;2022-10-04T10:04:38;24.10;50.60
15543;DHT22;7873;52.230;12.856;2022-10-04T10:07:15;24.10;50.60
15543;DHT22;7873;52.230;12.856;2022-10-04T10:09:53;24.00;50.90
15543;DHT22;7873;52.230;12.856;2022-10-04T10:12:52;24.00;50.90
15543;DHT22;7873;52.230;12.856;2022-10-04T10:15:49;24.00;50.80
15543;DHT22;7873;52.230;12.856;2022-10-04T10:18:25;23.90;50.90
15543;DHT22;7873;52.230;12.856;2022-10-04T10:21:08;23.90;50.90
15543;DHT22;7873;52.230;12.856;2022-10-04T10:23:54;24.00;50.70
15543;DHT22;7873;52.230;12.856;2022-10-04T10:26:32;24.00;50.60
15543;DHT22;7873;52.230;12.856;2022-10-04T10:29:14;24.00;50.50
15543;DHT22;7873;52.230;12.856;2022-10-04T10:31:58;24.00;50.40
15543;DHT22;7873;52.230;12.856;2022-10-04T10:34:50;24.10;50.50
15543;DHT22;7873;52.230;12.856;2022-10-04T10:37:40;24.10;50.40
15543;DHT22;7873;52.230;12.856;2022-10-04T10:40:31;23.90;50.70
15543;DHT22;7873;52.230;12.856;2022-10-04T10:43:18;23.90;50.80
15543;DHT22;7873;52.230;12.856;2022-10-04T10:46:08;23.90;50.90
15543;DHT22;7873;52.230;12.856;2022-10-04T10:48:54;23.90;50.70
15543;DHT22;7873;52.230;12.856;2022-10-04T10:51:44;24.10;50.50
15543;DHT22;7873;52.230;12.856;2022-10-04T10:54:40;24.10;50.50
15543;DHT22;7873;52.230;12.856;2022-10-04T10:57:29;24.10;50.30
15543;DHT22;7873;52.230;12.856;2022-10-04T11:00:14;24.10;50.20
15543;DHT22;7873;52.230;12.856;2022-10-04T11:21:28;24.00;50.40
15543;DHT22;7873;52.230;12.856;2022-10-04T11:24:20;24.00;50.40
15543;DHT22;7873;52.230;12.856;2022-10-04T11:27:20;24.00;50.50
15543;DHT22;7873;52.230;12.856;2022-10-04T11:30:01;24.00;50.30
15543;DHT22;7873;52.230;12.856;2022-10-04T11:35:59;24.10;50.20
15543;DHT22;7873;52.230;12.856;2022-10-04T11:38:45;24.00;50.40
15543;DHT22;7873;52.230;12.856;2022-10-04T11:41:38;24.00;50.40
15543;DHT22;7873;52.230;12.856;2022-10-04T11:44:24;24.10;50.40
15543;DHT22;7873;52.230;12.856;2022-10-04T11:47:11;24.00;50.20
15543;DHT22;7873;52.230;12.856;2022-10-04T11:49:54;24.20;49.90
15543;DHT22;7873;52.230;12.856;2022-10-04T11:52:41;24.10;50.10
15543;DHT22;7873;52.230;12.856;2022-10-04T11:58:26;24.00;50.20
15543;DHT22;7873;52.230;12.856;2022-10-04T12:04:15;24.00;50.20
15543;DHT22;7873;52.230;12.856;2022-10-04T12:07:01;24.00;50.40
15543;DHT22;7873;52.230;12.856;2022-10-04T12:09:47;24.00;50.40
15543;DHT22;7873;52.230;12.856;2022-10-04T12:12:28;24.10;50.20
15543;DHT22;7873;52.230;12.856;2022-10-04T12:15:12;24.00;50.10
15543;DHT22;7873;52.230;12.856;2022-10-04T12:21:06;24.00;50.20
15543;DHT22;7873;52.230;12.856;2022-10-04T12:23:47;24.00;50.10
15543;DHT22;7873;52.230;12.856;2022-10-04T12:26:38;24.10;50.20
15543;DHT22;7873;52.230;12.856;2022-10-04T12:29:20;24.10;50.00
15543;DHT22;7873;52.230;12.856;2022-10-04T12:31:54;24.10;50.70
15543;DHT22;7873;52.230;12.856;2022-10-04T12:34:25;24.10;50.00
15543;DHT22;7873;52.230;12.856;2022-10-04T12:36:59;24.10;49.90
15543;DHT22;7873;52.230;12.856;2022-10-04T12:39:41;24.00;50.00
15543;DHT22;7873;52.230;12.856;2022-10-04T12:42:20;24.00;50.40
15543;DHT22;7873;52.230;12.856;2022-10-04T12:45:01;23.90;49.50
15543;DHT22;7873;52.230;12.856;2022-10-04T12:47:43;23.80;48.80
15543;DHT22;7873;52.230;12.856;2022-10-04T12:50:18;23.90;48.80
15543;DHT22;7873;52.230;12.856;2022-10-04T12:52:52;23.90;48.80
15543;DHT22;7873;52.230;12.856;2022-10-04T12:55:25;23.80;49.30
15543;DHT22;7873;52.230;12.856;2022-10-04T12:58:06;23.80;48.60
15543;DHT22;7873;52.230;12.856;2022-10-04T13:00:48;23.80;49.00
15543;DHT22;7873;52.230;12.856;2022-10-04T13:03:21;23.80;48.60
15543;DHT22;7873;52.230;12.856;2022-10-04T13:05:56;23.80;48.20
15543;DHT22;7873;52.230;12.856;2022-10-04T13:08:46;23.90;47.80
15543;DHT22;7873;52.230;12.856;2022-10-04T13:11:35;23.90;48.70
15543;DHT22;7873;52.230;12.856;2022-10-04T13:14:27;24.00;48.70
15543;DHT22;7873;52.230;12.856;2022-10-04T13:17:06;24.00;47.40
15543;DHT22;7873;52.230;12.856;2022-10-04T13:19:45;23.90;46.70
15543;DHT22;7873;52.230;12.856;2022-10-04T13:22:32;23.90;48.20
15543;DHT22;7873;52.230;12.856;2022-10-04T13:25:13;24.10;47.80
15543;DHT22;7873;52.230;12.856;2022-10-04T13:27:56;24.20;47.80
15543;DHT22;7873;52.230;12.856;2022-10-04T13:30:27;24.20;48.10
15543;DHT22;7873;52.230;12.856;2022-10-04T13:33:04;24.30;48.00
15543;DHT22;7873;52.230;12.856;2022-10-04T13:35:45;24.30;48.10
15543;DHT22;7873;52.230;12.856;2022-10-04T13:41:20;24.20;48.40
15543;DHT22;7873;52.230;12.856;2022-10-04T13:44:06;24.10;48.60
15543;DHT22;7873;52.230;12.856;2022-10-04T13:46:47;24.10;48.70
15543;DHT22;7873;52.230;12.856;2022-10-04T13:49:35;24.10;48.80
15543;DHT22;7873;52.230;12.856;2022-10-04T13:52:19;24.10;48.70
15543;DHT22;7873;52.230;12.856;2022-10-04T13:55:15;24.10;48.70
15543;DHT22;7873;52.230;12.856;2022-10-04T13:58:11;24.10;48.70
15543;DHT22;7873;52.230;12.856;2022-10-04T14:00:58;24.20;48.80
15543;DHT22;7873;52.230;12.856;2022-10-04T14:03:44;24.20;48.90
15543;DHT22;7873;52.230;12.856;2022-10-04T14:09:35;24.10;49.00
15543;DHT22;7873;52.230;12.856;2022-10-04T14:12:24;24.10;49.00
15543;DHT22;7873;52.230;12.856;2022-10-04T14:15:21;24.10;49.00
15543;DHT22;7873;52.230;12.856;2022-10-04T14:21:25;24.20;49.00
15543;DHT22;7873;52.230;12.856;2022-10-04T14:30:23;24.30;48.80
15543;DHT22;7873;52.230;12.856;2022-10-04T14:36:18;24.40;48.60
15543;DHT22;7873;52.230;12.856;2022-10-04T14:41:59;24.40;48.60
15543;DHT22;7873;52.230;12.856;2022-10-04T14:44:50;24.40;48.60
15543;DHT22;7873;52.230;12.856;2022-10-04T14:47:45;24.40;48.60
15543;DHT22;7873;52.230;12.856;2022-10-04T14:50:31;24.40;49.00
15543;DHT22;7873;52.230;12.856;2022-10-04T14:53:10;24.40;50.30
15543;DHT22;7873;52.230;12.856;2022-10-04T14:58:51;24.50;49.40
15543;DHT22;7873;52.230;12.856;2022-10-04T15:01:26;24.60;49.50
15543;DHT22;7873;52.230;12.856;2022-10-04T15:03:58;24.60;49.40
15543;DHT22;7873;52.230;12.856;2022-10-04T15:06:37;24.50;48.60
15543;DHT22;7873;52.230;12.856;2022-10-04T15:12:39;24.60;47.80
15543;DHT22;7873;52.230;12.856;2022-10-04T15:15:21;24.60;47.80
15543;DHT22;7873;52.230;12.856;2022-10-04T15:17:59;24.60;48.10
15543;DHT22;7873;52.230;12.856;2022-10-04T15:20:29;24.60;48.30
15543;DHT22;7873;52.230;12.856;2022-10-04T15:23:08;24.70;48.20
15543;DHT22;7873;52.230;12.856;2022-10-04T15:25:41;24.80;48.00
15543;DHT22;7873;52.230;12.856;2022-10-04T15:31:00;24.90;47.20
15543;DHT22;7873;52.230;12.856;2022-10-04T15:33:38;24.70;47.10
15543;DHT22;7873;52.230;12.856;2022-10-04T15:36:26;24.70;47.40
15543;DHT22;7873;52.230;12.856;2022-10-04T15:39:05;24.80;47.30
15543;DHT22;7873;52.230;12.856;2022-10-04T15:41:47;24.80;47.50
15543;DHT22;7873;52.230;12.856;2022-10-04T15:44:41;24.70;47.80
15543;DHT22;7873;52.230;12.856;2022-10-04T15:47:19;24.70;48.10
15543;DHT22;7873;52.230;12.856;2022-10-04T15:49:56;24.70;48.70
15543;DHT22;7873;52.230;12.856;2022-10-04T15:52:43;24.60;49.00
15543;DHT22;7873;52.230;12.856;2022-10-04T15:55:19;24.60;49.10
15543;DHT22;7873;52.230;12.856;2022-10-04T15:57:54;24.50;49.40
15543;DHT22;7873;52.230;12.856;2022-10-04T16:00:37;24.50;49.80
15543;DHT22;7873;52.230;12.856;2022-10-04T16:03:19;24.50;50.10
15543;DHT22;7873;52.230;12.856;2022-10-04T16:06:01;24.70;50.20
15543;DHT22;7873;52.230;12.856;2022-10-04T16:08:41;24.80;50.10
15543;DHT22;7873;52.230;12.856;2022-10-04T16:11:28;24.90;50.30
15543;DHT22;7873;52.230;12.856;2022-10-04T16:14:17;25.00;50.00
15543;DHT22;7873;52.230;12.856;2022-10-04T16:17:07;25.10;49.70
15543;DHT22;7873;52.230;12.856;2022-10-04T16:25:57;25.10;49.70
15543;DHT22;7873;52.230;12.856;2022-10-04T16:28:32;25.00;49.70
15543;DHT22;7873;52.230;12.856;2022-10-04T16:31:22;25.00;49.50
15543;DHT22;7873;52.230;12.856;2022-10-04T16:34:06;24.90;49.70
15543;DHT22;7873;52.230;12.856;2022-10-04T16:36:44;24.90;49.70
15543;DHT22;7873;52.230;12.856;2022-10-04T16:39:28;24.90;49.80
15543;DHT22;7873;52.230;12.856;2022-10-04T16:42:15;25.00;49.50
15543;DHT22;7873;52.230;12.856;2022-10-04T16:44:46;25.00;49.00
15543;DHT22;7873;52.230;12.856;2022-10-04T16:47:18;25.00;49.10
15543;DHT22;7873;52.230;12.856;2022-10-04T16:49:49;25.00;48.80
15543;DHT22;7873;52.230;12.856;2022-10-04T16:52:22;25.00;48.80
15543;DHT22;7873;52.230;12.856;2022-10-04T17:04:16;24.80;48.80
15543;DHT22;7873;52.230;12.856;2022-10-04T17:07:05;24.90;48.50
15543;DHT22;7873;52.230;12.856;2022-10-04T17:09:45;25.00;48.10
15543;DHT22;7873;52.230;12.856;2022-10-04T17:12:15;25.00;47.90
15543;DHT22;7873;52.230;12.856;2022-10-04T17:15:04;25.00;47.80
15543;DHT22;7873;52.230;12.856;2022-10-04T17:17:41;24.90;48.20
15543;DHT22;7873;52.230;12.856;2022-10-04T17:20:14;24.80;47.00
15543;DHT22;7873;52.230;12.856;2022-10-04T17:22:53;24.60;47.60
15543;DHT22;7873;52.230;12.856;2022-10-04T17:25:28;24.60;48.30
15543;DHT22;7873;52.230;12.856;2022-10-04T17:28:01;24.90;47.90
15543;DHT22;7873;52.230;12.856;2022-10-04T17:30:47;25.00;47.80
15543;DHT22;7873;52.230;12.856;2022-10-04T17:33:22;25.10;47.80
15543;DHT22;7873;52.230;12.856;2022-10-04T17:36:01;25.10;47.70
15543;DHT22;7873;52.230;12.856;2022-10-04T17:38:42;25.00;47.60
15543;DHT22;7873;52.230;12.856;2022-10-04T17:41:17;24.80;49.00
15543;DHT22;7873;52.230;12.856;2022-10-04T17:44:12;24.60;48.10
15543;DHT22;7873;52.230;12.856;2022-10-04T17:46:51;24.60;48.80
15543;DHT22;7873;52.230;12.856;2022-10-04T17:49:25;24.70;48.80
15543;DHT22;7873;52.230;12.856;2022-10-04T17:52:16;24.70;49.10
15543;DHT22;7873;52.230;12.856;2022-10-04T17:55:11;24.70;48.80
15543;DHT22;7873;52.230;12.856;2022-10-04T17:57:42;24.80;49.10
15543;DHT22;7873;52.230;12.856;2022-10-04T18:00:14;24.80;49.30
15543;DHT22;7873;52.230;12.856;2022-10-04T18:02:59;24.90;49.30
15543;DHT22;7873;52.230;12.856;2022-10-04T18:05:34;24.80;49.30
15543;DHT22;7873;52.230;12.856;2022-10-04T18:08:12;24.70;49.50
15543;DHT22;7873;52.230;12.856;2022-10-04T18:10:45;24.70;49.50
15543;DHT22;7873;52.230;12.856;2022-10-04T18:13:17;24.80;49.50
15543;DHT22;7873;52.230;12.856;2022-10-04T18:15:50;24.70;49.70
15543;DHT22;7873;52.230;12.856;2022-10-04T18:18:26;24.70;49.80
15543;DHT22;7873;52.230;12.856;2022-10-04T18:21:00;24.70;49.70
15543;DHT22;7873;52.230;12.856;2022-10-04T18:23:32;24.70;49.90
15543;DHT22;7873;52.230;12.856;2022-10-04T18:26:04;24.70;49.60
15543;DHT22;7873;52.230;12.856;2022-10-04T18:28:36;24.70;49.60